sensor_id;sensor_type;location;lat;lon;timestamp;P1;durP1;ratioP1;P2;durP2;ratioP2
71562;SDS011;59391;52.504;13.438;2022-11-15T00:01:47;51.67;;;26.52;;
71562;SDS011;59391;52.504;13.438;2022-11-15T00:04:12;48.93;;;25.70;;
71562;SDS011;59391;52.504;13.438;2022-11-15T00:06:38;53.40;;;27.65;;
71562;SDS011;59391;52.504;13.438;2022-11-15T00:09:03;75.20;;;37.43;;
71562;SDS011;59391;52.504;13.438;2022-11-15T00:11:29;80.57;;;41.00;;
71562;SDS011;59391;52.504;13.438;2022-11-15T00:13:55;61.53;;;33.10;;
71562;SDS011;59391;52.504;13.438;2022-11-15T00:16:23;60.78;;;31.17;;
71562;SDS011;59391;52.504;13.438;2022-11-15T00:18:49;61.22;;;31.23;;
71562;SDS011;59391;52.504;13.438;2022-11-15T00:21:16;53.58;;;27.60;;
71562;SDS011;59391;52.504;13.438;2022-11-15T00:23:43;48.90;;;27.03;;
71562;SDS011;59391;52.504;13.438;2022-11-15T00:26:12;55.17;;;27.70;;
71562;SDS011;59391;52.504;13.438;2022-11-15T00:28:40;48.55;;;26.48;;
71562;SDS011;59391;52.504;13.438;2022-11-15T00:31:08;46.60;;;23.00;;
71562;SDS011;59391;52.504;13.438;2022-11-15T00:33:37;49.28;;;25.08;;
71562;SDS011;59391;52.504;13.438;2022-11-15T00:36:03;50.03;;;25.77;;
71562;SDS011;59391;52.504;13.438;2022-11-15T00:38:32;50.25;;;25.77;;
71562;SDS011;59391;52.504;13.438;2022-11-15T00:41:00;44.08;;;24.02;;
71562;SDS011;59391;52.504;13.438;2022-11-15T00:43:28;42.03;;;22.40;;
71562;SDS011;59391;52.504;13.438;2022-11-15T00:45:54;47.45;;;24.33;;
71562;SDS011;59391;52.504;13.438;2022-11-15T00:48:19;46.35;;;24.60;;
71562;SDS011;59391;52.504;13.438;2022-11-15T00:50:45;46.27;;;23.83;;
71562;SDS011;59391;52.504;13.438;2022-11-15T00:53:11;48.63;;;24.70;;
71562;SDS011;59391;52.504;13.438;2022-11-15T00:55:37;44.70;;;22.83;;
71562;SDS011;59391;52.504;13.438;2022-11-15T00:58:02;46.17;;;25.33;;
71562;SDS011;59391;52.504;13.438;2022-11-15T01:00:28;44.30;;;23.80;;
71562;SDS011;59391;52.504;13.438;2022-11-15T01:02:54;49.43;;;24.30;;
71562;SDS011;59391;52.504;13.438;2022-11-15T01:05:20;47.45;;;24.08;;
71562;SDS011;59391;52.504;13.438;2022-11-15T01:07:45;49.38;;;26.52;;
71562;SDS011;59391;52.504;13.438;2022-11-15T01:10:11;43.30;;;23.38;;
71562;SDS011;59391;52.504;13.438;2022-11-15T01:12:37;45.28;;;23.95;;
71562;SDS011;59391;52.504;13.438;2022-11-15T01:15:03;49.43;;;25.00;;
71562;SDS011;59391;52.504;13.438;2022-11-15T01:17:30;45.90;;;24.95;;
71562;SDS011;59391;52.504;13.438;2022-11-15T01:19:56;51.30;;;25.60;;
71562;SDS011;59391;52.504;13.438;2022-11-15T01:22:22;45.20;;;22.70;;
71562;SDS011;59391;52.504;13.438;2022-11-15T01:24:51;43.03;;;22.43;;
71562;SDS011;59391;52.504;13.438;2022-11-15T01:27:16;45.85;;;24.10;;
71562;SDS011;59391;52.504;13.438;2022-11-15T01:29:42;47.40;;;24.60;;
71562;SDS011;59391;52.504;13.438;2022-11-15T01:32:08;46.15;;;23.80;;
71562;SDS011;59391;52.504;13.438;2022-11-15T01:34:34;45.60;;;24.67;;
71562;SDS011;59391;52.504;13.438;2022-11-15T01:36:59;48.88;;;25.83;;
71562;SDS011;59391;52.504;13.438;2022-11-15T01:39:25;45.67;;;24.23;;
71562;SDS011;59391;52.504;13.438;2022-11-15T01:41:52;45.55;;;23.42;;
71562;SDS011;59391;52.504;13.438;2022-11-15T01:47:00;50.43;;;24.60;;
71562;SDS011;59391;52.504;13.438;2022-11-15T01:49:33;54.45;;;28.15;;
71562;SDS011;59391;52.504;13.438;2022-11-15T01:52:05;50.08;;;26.58;;
71562;SDS011;59391;52.504;13.438;2022-11-15T01:54:38;51.10;;;26.17;;
71562;SDS011;59391;52.504;13.438;2022-11-15T01:57:08;48.10;;;25.48;;
71562;SDS011;59391;52.504;13.438;2022-11-15T01:59:37;47.70;;;23.57;;
71562;SDS011;59391;52.504;13.438;2022-11-15T02:02:07;46.65;;;24.73;;
71562;SDS011;59391;52.504;13.438;2022-11-15T02:04:34;47.88;;;25.35;;
71562;SDS011;59391;52.504;13.438;2022-11-15T02:07:06;51.22;;;26.75;;
71562;SDS011;59391;52.504;13.438;2022-11-15T02:09:36;49.72;;;26.45;;
71562;SDS011;59391;52.504;13.438;2022-11-15T02:12:03;48.47;;;24.60;;
71562;SDS011;59391;52.504;13.438;2022-11-15T02:14:38;58.40;;;27.40;;
71562;SDS011;59391;52.504;13.438;2022-11-15T02:17:13;50.38;;;27.10;;
71562;SDS011;59391;52.504;13.438;2022-11-15T02:20:12;58.35;;;28.58;;
71562;SDS011;59391;52.504;13.438;2022-11-15T02:23:31;58.00;;;29.15;;
71562;SDS011;59391;52.504;13.438;2022-11-15T02:29:28;50.08;;;26.08;;
71562;SDS011;59391;52.504;13.438;2022-11-15T02:32:21;47.75;;;25.45;;
71562;SDS011;59391;52.504;13.438;2022-11-15T02:35:16;48.10;;;25.42;;
71562;SDS011;59391;52.504;13.438;2022-11-15T02:43:59;51.88;;;25.83;;
71562;SDS011;59391;52.504;13.438;2022-11-15T02:46:36;45.60;;;24.00;;
71562;SDS011;59391;52.504;13.438;2022-11-15T02:49:39;46.08;;;24.80;;
71562;SDS011;59391;52.504;13.438;2022-11-15T02:52:14;48.75;;;25.55;;
71562;SDS011;59391;52.504;13.438;2022-11-15T02:54:56;48.43;;;25.50;;
71562;SDS011;59391;52.504;13.438;2022-11-15T02:57:36;50.95;;;25.02;;
71562;SDS011;59391;52.504;13.438;2022-11-15T03:00:17;47.35;;;25.17;;
71562;SDS011;59391;52.504;13.438;2022-11-15T03:03:00;46.35;;;24.10;;
71562;SDS011;59391;52.504;13.438;2022-11-15T03:06:03;46.47;;;24.08;;
71562;SDS011;59391;52.504;13.438;2022-11-15T03:08:58;49.57;;;24.93;;
71562;SDS011;59391;52.504;13.438;2022-11-15T03:11:43;48.58;;;24.92;;
71562;SDS011;59391;52.504;13.438;2022-11-15T03:17:25;50.35;;;25.23;;
71562;SDS011;59391;52.504;13.438;2022-11-15T03:19:58;50.10;;;25.30;;
71562;SDS011;59391;52.504;13.438;2022-11-15T03:22:28;49.90;;;24.33;;
71562;SDS011;59391;52.504;13.438;2022-11-15T03:25:05;49.30;;;24.42;;
71562;SDS011;59391;52.504;13.438;2022-11-15T03:27:39;50.40;;;24.08;;
71562;SDS011;59391;52.504;13.438;2022-11-15T03:30:11;49.08;;;24.60;;
71562;SDS011;59391;52.504;13.438;2022-11-15T03:32:40;49.08;;;24.85;;
71562;SDS011;59391;52.504;13.438;2022-11-15T03:35:18;48.17;;;25.23;;
71562;SDS011;59391;52.504;13.438;2022-11-15T03:37:55;50.58;;;25.15;;
71562;SDS011;59391;52.504;13.438;2022-11-15T03:40:49;47.85;;;25.20;;
71562;SDS011;59391;52.504;13.438;2022-11-15T03:46:07;50.10;;;25.65;;
71562;SDS011;59391;52.504;13.438;2022-11-15T03:48:41;50.87;;;25.07;;
71562;SDS011;59391;52.504;13.438;2022-11-15T03:51:18;45.83;;;24.20;;
71562;SDS011;59391;52.504;13.438;2022-11-15T03:53:45;48.65;;;25.42;;
71562;SDS011;59391;52.504;13.438;2022-11-15T03:56:11;59.63;;;30.05;;
71562;SDS011;59391;52.504;13.438;2022-11-15T03:58:37;51.37;;;26.73;;
71562;SDS011;59391;52.504;13.438;2022-11-15T04:01:02;47.08;;;23.25;;
71562;SDS011;59391;52.504;13.438;2022-11-15T04:03:28;46.60;;;23.30;;
71562;SDS011;59391;52.504;13.438;2022-11-15T04:05:53;46.63;;;24.33;;
71562;SDS011;59391;52.504;13.438;2022-11-15T04:08:19;50.83;;;24.97;;
71562;SDS011;59391;52.504;13.438;2022-11-15T04:10:45;47.07;;;22.83;;
71562;SDS011;59391;52.504;13.438;2022-11-15T04:13:13;47.83;;;24.85;;
71562;SDS011;59391;52.504;13.438;2022-11-15T04:15:39;48.33;;;24.90;;
71562;SDS011;59391;52.504;13.438;2022-11-15T04:18:04;46.77;;;24.17;;
71562;SDS011;59391;52.504;13.438;2022-11-15T04:20:30;50.10;;;23.77;;
71562;SDS011;59391;52.504;13.438;2022-11-15T04:23:19;48.25;;;24.98;;
71562;SDS011;59391;52.504;13.438;2022-11-15T04:26:13;49.78;;;25.27;;
71562;SDS011;59391;52.504;13.438;2022-11-15T04:28:43;48.72;;;24.05;;
71562;SDS011;59391;52.504;13.438;2022-11-15T04:31:27;57.57;;;29.23;;
71562;SDS011;59391;52.504;13.438;2022-11-15T04:33:53;48.92;;;24.52;;
71562;SDS011;59391;52.504;13.438;2022-11-15T04:36:20;46.90;;;23.75;;
71562;SDS011;59391;52.504;13.438;2022-11-15T04:39:05;42.75;;;23.05;;
71562;SDS011;59391;52.504;13.438;2022-11-15T04:41:31;49.75;;;24.95;;
71562;SDS011;59391;52.504;13.438;2022-11-15T04:43:57;49.23;;;24.13;;
71562;SDS011;59391;52.504;13.438;2022-11-15T04:46:23;49.30;;;24.10;;
71562;SDS011;59391;52.504;13.438;2022-11-15T04:48:49;48.05;;;23.65;;
71562;SDS011;59391;52.504;13.438;2022-11-15T04:51:16;48.15;;;23.52;;
71562;SDS011;59391;52.504;13.438;2022-11-15T04:53:42;49.05;;;22.60;;
71562;SDS011;59391;52.504;13.438;2022-11-15T04:56:08;48.60;;;24.17;;
71562;SDS011;59391;52.504;13.438;2022-11-15T04:58:34;45.78;;;23.33;;
71562;SDS011;59391;52.504;13.438;2022-11-15T05:01:07;46.42;;;23.67;;
71562;SDS011;59391;52.504;13.438;2022-11-15T05:03:37;49.20;;;24.05;;
71562;SDS011;59391;52.504;13.438;2022-11-15T05:06:21;53.30;;;26.30;;
71562;SDS011;59391;52.504;13.438;2022-11-15T05:08:50;51.40;;;25.95;;
71562;SDS011;59391;52.504;13.438;2022-11-15T05:11:16;49.47;;;25.67;;
71562;SDS011;59391;52.504;13.438;2022-11-15T05:13:42;47.50;;;24.63;;
71562;SDS011;59391;52.504;13.438;2022-11-15T05:16:07;48.35;;;24.08;;
71562;SDS011;59391;52.504;13.438;2022-11-15T05:18:33;50.60;;;26.13;;
71562;SDS011;59391;52.504;13.438;2022-11-15T05:21:03;52.10;;;26.98;;
71562;SDS011;59391;52.504;13.438;2022-11-15T05:23:34;50.70;;;24.33;;
71562;SDS011;59391;52.504;13.438;2022-11-15T05:26:00;52.47;;;25.95;;
71562;SDS011;59391;52.504;13.438;2022-11-15T05:28:28;46.33;;;24.50;;
71562;SDS011;59391;52.504;13.438;2022-11-15T05:31:01;52.42;;;26.42;;
71562;SDS011;59391;52.504;13.438;2022-11-15T05:33:36;49.73;;;24.10;;
71562;SDS011;59391;52.504;13.438;2022-11-15T05:36:05;50.60;;;24.63;;
71562;SDS011;59391;52.504;13.438;2022-11-15T05:38:38;46.50;;;23.67;;
71562;SDS011;59391;52.504;13.438;2022-11-15T05:41:04;49.30;;;26.20;;
71562;SDS011;59391;52.504;13.438;2022-11-15T05:43:31;49.60;;;26.67;;
71562;SDS011;59391;52.504;13.438;2022-11-15T05:46:01;51.53;;;26.87;;
71562;SDS011;59391;52.504;13.438;2022-11-15T05:48:29;60.47;;;31.27;;
71562;SDS011;59391;52.504;13.438;2022-11-15T05:50:55;66.97;;;33.35;;
71562;SDS011;59391;52.504;13.438;2022-11-15T05:53:22;49.55;;;25.13;;
71562;SDS011;59391;52.504;13.438;2022-11-15T05:55:50;51.97;;;26.83;;
71562;SDS011;59391;52.504;13.438;2022-11-15T05:58:17;51.17;;;24.63;;
71562;SDS011;59391;52.504;13.438;2022-11-15T06:00:45;50.47;;;25.50;;
71562;SDS011;59391;52.504;13.438;2022-11-15T06:03:11;50.33;;;25.45;;
71562;SDS011;59391;52.504;13.438;2022-11-15T06:05:39;49.63;;;25.80;;
71562;SDS011;59391;52.504;13.438;2022-11-15T06:08:05;47.83;;;23.60;;
71562;SDS011;59391;52.504;13.438;2022-11-15T06:10:31;47.33;;;25.37;;
71562;SDS011;59391;52.504;13.438;2022-11-15T06:12:58;44.30;;;23.90;;
71562;SDS011;59391;52.504;13.438;2022-11-15T06:15:34;47.17;;;23.38;;
71562;SDS011;59391;52.504;13.438;2022-11-15T06:17:59;48.33;;;23.98;;
71562;SDS011;59391;52.504;13.438;2022-11-15T06:20:26;53.28;;;28.23;;
71562;SDS011;59391;52.504;13.438;2022-11-15T06:23:02;52.40;;;24.73;;
71562;SDS011;59391;52.504;13.438;2022-11-15T06:25:29;55.17;;;26.63;;
71562;SDS011;59391;52.504;13.438;2022-11-15T06:27:56;52.35;;;26.15;;
71562;SDS011;59391;52.504;13.438;2022-11-15T06:30:24;52.22;;;23.40;;
71562;SDS011;59391;52.504;13.438;2022-11-15T06:32:58;62.58;;;29.95;;
71562;SDS011;59391;52.504;13.438;2022-11-15T06:35:29;53.17;;;24.40;;
71562;SDS011;59391;52.504;13.438;2022-11-15T06:38:05;64.05;;;29.38;;
71562;SDS011;59391;52.504;13.438;2022-11-15T06:40:34;60.90;;;27.50;;
71562;SDS011;59391;52.504;13.438;2022-11-15T06:43:02;62.60;;;29.52;;
71562;SDS011;59391;52.504;13.438;2022-11-15T06:45:30;56.17;;;26.98;;
71562;SDS011;59391;52.504;13.438;2022-11-15T06:47:56;60.60;;;29.23;;
71562;SDS011;59391;52.504;13.438;2022-11-15T06:50:22;54.10;;;25.98;;
71562;SDS011;59391;52.504;13.438;2022-11-15T06:52:48;54.97;;;27.05;;
71562;SDS011;59391;52.504;13.438;2022-11-15T06:55:14;50.20;;;24.60;;
71562;SDS011;59391;52.504;13.438;2022-11-15T06:57:46;57.20;;;25.65;;
71562;SDS011;59391;52.504;13.438;2022-11-15T07:03:09;62.53;;;30.42;;
71562;SDS011;59391;52.504;13.438;2022-11-15T07:05:35;63.00;;;31.83;;
71562;SDS011;59391;52.504;13.438;2022-11-15T07:08:01;71.95;;;39.70;;
71562;SDS011;59391;52.504;13.438;2022-11-15T07:10:28;55.10;;;25.92;;
71562;SDS011;59391;52.504;13.438;2022-11-15T07:12:54;72.28;;;37.97;;
71562;SDS011;59391;52.504;13.438;2022-11-15T07:15:22;50.73;;;24.60;;
71562;SDS011;59391;52.504;13.438;2022-11-15T07:17:50;51.42;;;26.52;;
71562;SDS011;59391;52.504;13.438;2022-11-15T07:20:16;53.00;;;26.20;;
71562;SDS011;59391;52.504;13.438;2022-11-15T07:22:43;55.80;;;26.50;;
71562;SDS011;59391;52.504;13.438;2022-11-15T07:25:12;48.10;;;25.07;;
71562;SDS011;59391;52.504;13.438;2022-11-15T07:27:38;50.38;;;25.40;;
71562;SDS011;59391;52.504;13.438;2022-11-15T07:30:04;59.83;;;27.48;;
71562;SDS011;59391;52.504;13.438;2022-11-15T07:32:30;60.80;;;28.90;;
71562;SDS011;59391;52.504;13.438;2022-11-15T07:34:56;66.45;;;31.83;;
71562;SDS011;59391;52.504;13.438;2022-11-15T07:37:21;51.10;;;27.10;;
71562;SDS011;59391;52.504;13.438;2022-11-15T07:39:47;52.78;;;26.05;;
71562;SDS011;59391;52.504;13.438;2022-11-15T07:42:13;56.97;;;26.50;;
71562;SDS011;59391;52.504;13.438;2022-11-15T07:45:05;53.50;;;25.02;;
71562;SDS011;59391;52.504;13.438;2022-11-15T07:47:31;50.08;;;24.38;;
71562;SDS011;59391;52.504;13.438;2022-11-15T07:49:56;48.30;;;25.23;;
71562;SDS011;59391;52.504;13.438;2022-11-15T07:52:22;68.10;;;28.95;;
71562;SDS011;59391;52.504;13.438;2022-11-15T07:54:48;60.03;;;29.93;;
71562;SDS011;59391;52.504;13.438;2022-11-15T07:57:13;53.75;;;26.60;;
71562;SDS011;59391;52.504;13.438;2022-11-15T07:59:39;54.92;;;27.90;;
71562;SDS011;59391;52.504;13.438;2022-11-15T08:02:04;49.03;;;26.47;;
71562;SDS011;59391;52.504;13.438;2022-11-15T08:04:30;47.40;;;25.65;;
71562;SDS011;59391;52.504;13.438;2022-11-15T08:06:56;50.10;;;25.80;;
71562;SDS011;59391;52.504;13.438;2022-11-15T08:09:22;58.38;;;28.60;;
71562;SDS011;59391;52.504;13.438;2022-11-15T08:11:47;56.63;;;29.60;;
71562;SDS011;59391;52.504;13.438;2022-11-15T08:14:13;58.65;;;30.92;;
71562;SDS011;59391;52.504;13.438;2022-11-15T08:16:38;55.00;;;26.87;;
71562;SDS011;59391;52.504;13.438;2022-11-15T08:19:04;57.37;;;28.70;;
71562;SDS011;59391;52.504;13.438;2022-11-15T08:21:32;54.88;;;28.52;;
71562;SDS011;59391;52.504;13.438;2022-11-15T08:23:58;54.65;;;30.15;;
71562;SDS011;59391;52.504;13.438;2022-11-15T08:26:24;61.70;;;30.77;;
71562;SDS011;59391;52.504;13.438;2022-11-15T08:28:52;64.75;;;30.45;;
71562;SDS011;59391;52.504;13.438;2022-11-15T08:31:18;48.00;;;26.10;;
71562;SDS011;59391;52.504;13.438;2022-11-15T08:33:44;68.95;;;34.80;;
71562;SDS011;59391;52.504;13.438;2022-11-15T08:36:13;72.93;;;36.40;;
71562;SDS011;59391;52.504;13.438;2022-11-15T08:38:41;55.03;;;27.97;;
71562;SDS011;59391;52.504;13.438;2022-11-15T08:41:10;63.67;;;31.10;;
71562;SDS011;59391;52.504;13.438;2022-11-15T08:43:49;56.13;;;29.15;;
71562;SDS011;59391;52.504;13.438;2022-11-15T08:46:15;88.50;;;36.97;;
71562;SDS011;59391;52.504;13.438;2022-11-15T08:48:40;62.90;;;30.08;;
71562;SDS011;59391;52.504;13.438;2022-11-15T08:51:06;53.73;;;28.97;;
71562;SDS011;59391;52.504;13.438;2022-11-15T08:53:32;62.33;;;31.85;;
71562;SDS011;59391;52.504;13.438;2022-11-15T08:55:58;56.13;;;29.93;;
71562;SDS011;59391;52.504;13.438;2022-11-15T08:58:24;55.92;;;28.67;;
71562;SDS011;59391;52.504;13.438;2022-11-15T09:00:49;43.00;;;23.50;;
71562;SDS011;59391;52.504;13.438;2022-11-15T09:03:16;43.50;;;23.25;;
71562;SDS011;59391;52.504;13.438;2022-11-15T09:05:42;49.40;;;25.30;;
71562;SDS011;59391;52.504;13.438;2022-11-15T09:08:07;52.47;;;25.40;;
71562;SDS011;59391;52.504;13.438;2022-11-15T09:10:33;45.23;;;24.27;;
71562;SDS011;59391;52.504;13.438;2022-11-15T09:13:01;41.40;;;24.20;;
71562;SDS011;59391;52.504;13.438;2022-11-15T09:15:27;43.05;;;23.83;;
71562;SDS011;59391;52.504;13.438;2022-11-15T09:17:53;50.17;;;25.90;;
71562;SDS011;59391;52.504;13.438;2022-11-15T09:20:18;46.92;;;25.55;;
71562;SDS011;59391;52.504;13.438;2022-11-15T09:22:44;44.53;;;24.50;;
71562;SDS011;59391;52.504;13.438;2022-11-15T09:25:10;47.70;;;24.70;;
71562;SDS011;59391;52.504;13.438;2022-11-15T09:27:35;43.93;;;24.23;;
71562;SDS011;59391;52.504;13.438;2022-11-15T09:30:01;45.55;;;23.75;;
71562;SDS011;59391;52.504;13.438;2022-11-15T09:32:30;45.45;;;24.23;;
71562;SDS011;59391;52.504;13.438;2022-11-15T09:34:55;35.33;;;20.70;;
71562;SDS011;59391;52.504;13.438;2022-11-15T09:37:22;41.05;;;21.50;;
71562;SDS011;59391;52.504;13.438;2022-11-15T09:39:48;43.77;;;22.13;;
71562;SDS011;59391;52.504;13.438;2022-11-15T09:42:36;45.08;;;23.30;;
71562;SDS011;59391;52.504;13.438;2022-11-15T09:45:35;43.25;;;22.08;;
71562;SDS011;59391;52.504;13.438;2022-11-15T09:48:32;37.03;;;20.10;;
71562;SDS011;59391;52.504;13.438;2022-11-15T09:51:25;36.10;;;19.75;;
71562;SDS011;59391;52.504;13.438;2022-11-15T09:54:01;35.78;;;19.92;;
71562;SDS011;59391;52.504;13.438;2022-11-15T09:56:31;29.90;;;18.17;;
71562;SDS011;59391;52.504;13.438;2022-11-15T09:59:11;28.92;;;17.45;;
71562;SDS011;59391;52.504;13.438;2022-11-15T10:04:57;30.77;;;17.52;;
71562;SDS011;59391;52.504;13.438;2022-11-15T10:07:27;29.23;;;16.85;;
71562;SDS011;59391;52.504;13.438;2022-11-15T10:10:10;24.00;;;14.98;;
71562;SDS011;59391;52.504;13.438;2022-11-15T10:12:54;40.42;;;26.42;;
71562;SDS011;59391;52.504;13.438;2022-11-15T10:15:20;28.80;;;18.20;;
71562;SDS011;59391;52.504;13.438;2022-11-15T10:18:09;26.05;;;16.75;;
71562;SDS011;59391;52.504;13.438;2022-11-15T10:20:46;28.23;;;16.73;;
71562;SDS011;59391;52.504;13.438;2022-11-15T10:23:27;34.85;;;24.35;;
71562;SDS011;59391;52.504;13.438;2022-11-15T10:25:55;23.42;;;15.40;;
71562;SDS011;59391;52.504;13.438;2022-11-15T10:28:30;27.02;;;16.85;;
71562;SDS011;59391;52.504;13.438;2022-11-15T10:30:57;29.13;;;16.98;;
71562;SDS011;59391;52.504;13.438;2022-11-15T10:33:27;28.45;;;16.83;;
71562;SDS011;59391;52.504;13.438;2022-11-15T10:41:13;24.20;;;15.48;;
71562;SDS011;59391;52.504;13.438;2022-11-15T10:43:45;23.13;;;14.98;;
71562;SDS011;59391;52.504;13.438;2022-11-15T10:46:32;23.63;;;14.40;;
71562;SDS011;59391;52.504;13.438;2022-11-15T10:49:13;26.67;;;16.05;;
71562;SDS011;59391;52.504;13.438;2022-11-15T10:51:53;24.23;;;15.60;;
71562;SDS011;59391;52.504;13.438;2022-11-15T10:54:40;21.80;;;14.70;;
71562;SDS011;59391;52.504;13.438;2022-11-15T10:57:30;24.42;;;14.23;;
71562;SDS011;59391;52.504;13.438;2022-11-15T11:00:04;26.50;;;16.05;;
71562;SDS011;59391;52.504;13.438;2022-11-15T11:02:55;25.70;;;16.30;;
71562;SDS011;59391;52.504;13.438;2022-11-15T11:10:36;24.98;;;15.20;;
71562;SDS011;59391;52.504;13.438;2022-11-15T11:13:19;22.38;;;14.27;;
71562;SDS011;59391;52.504;13.438;2022-11-15T11:16:11;23.45;;;14.68;;
71562;SDS011;59391;52.504;13.438;2022-11-15T11:19:20;22.00;;;14.15;;
71562;SDS011;59391;52.504;13.438;2022-11-15T11:28:50;25.80;;;15.10;;
71562;SDS011;59391;52.504;13.438;2022-11-15T11:32:01;23.00;;;14.80;;
71562;SDS011;59391;52.504;13.438;2022-11-15T11:34:50;23.27;;;14.63;;
71562;SDS011;59391;52.504;13.438;2022-11-15T11:37:47;32.80;;;17.67;;
71562;SDS011;59391;52.504;13.438;2022-11-15T11:42:58;26.92;;;15.80;;
71562;SDS011;59391;52.504;13.438;2022-11-15T11:51:20;22.48;;;13.77;;
71562;SDS011;59391;52.504;13.438;2022-11-15T11:57:05;29.92;;;15.23;;
71562;SDS011;59391;52.504;13.438;2022-11-15T11:59:55;29.58;;;17.85;;
71562;SDS011;59391;52.504;13.438;2022-11-15T12:02:31;28.98;;;17.77;;
71562;SDS011;59391;52.504;13.438;2022-11-15T12:05:13;28.00;;;16.07;;
71562;SDS011;59391;52.504;13.438;2022-11-15T12:08:25;30.55;;;17.30;;
71562;SDS011;59391;52.504;13.438;2022-11-15T12:14:34;21.42;;;13.93;;
71562;SDS011;59391;52.504;13.438;2022-11-15T12:17:21;18.10;;;12.57;;
71562;SDS011;59391;52.504;13.438;2022-11-15T12:19:51;23.20;;;14.10;;
71562;SDS011;59391;52.504;13.438;2022-11-15T12:22:23;22.77;;;14.30;;
71562;SDS011;59391;52.504;13.438;2022-11-15T12:25:08;23.45;;;14.35;;
71562;SDS011;59391;52.504;13.438;2022-11-15T12:30:37;23.42;;;14.30;;
71562;SDS011;59391;52.504;13.438;2022-11-15T12:36:12;19.17;;;13.40;;
71562;SDS011;59391;52.504;13.438;2022-11-15T12:39:06;20.88;;;13.77;;
71562;SDS011;59391;52.504;13.438;2022-11-15T12:41:41;19.02;;;13.10;;
71562;SDS011;59391;52.504;13.438;2022-11-15T13:02:30;22.42;;;15.50;;
71562;SDS011;59391;52.504;13.438;2022-11-15T13:17:46;22.80;;;13.17;;
71562;SDS011;59391;52.504;13.438;2022-11-15T13:20:23;20.13;;;12.23;;
71562;SDS011;59391;52.504;13.438;2022-11-15T13:23:00;20.17;;;12.30;;
71562;SDS011;59391;52.504;13.438;2022-11-15T13:25:46;20.77;;;11.82;;
71562;SDS011;59391;52.504;13.438;2022-11-15T13:28:38;18.83;;;11.93;;
71562;SDS011;59391;52.504;13.438;2022-11-15T13:34:02;19.73;;;11.70;;
71562;SDS011;59391;52.504;13.438;2022-11-15T13:36:51;17.77;;;11.38;;
71562;SDS011;59391;52.504;13.438;2022-11-15T13:39:30;17.35;;;11.40;;
71562;SDS011;59391;52.504;13.438;2022-11-15T13:41:59;19.90;;;11.48;;
71562;SDS011;59391;52.504;13.438;2022-11-15T13:44:27;17.23;;;10.77;;
71562;SDS011;59391;52.504;13.438;2022-11-15T13:47:07;19.15;;;12.07;;
71562;SDS011;59391;52.504;13.438;2022-11-15T13:49:40;19.42;;;11.45;;
71562;SDS011;59391;52.504;13.438;2022-11-15T13:52:13;21.48;;;13.38;;
71562;SDS011;59391;52.504;13.438;2022-11-15T13:54:45;24.10;;;16.27;;
71562;SDS011;59391;52.504;13.438;2022-11-15T13:57:39;22.03;;;11.77;;
71562;SDS011;59391;52.504;13.438;2022-11-15T14:00:24;18.40;;;11.90;;
71562;SDS011;59391;52.504;13.438;2022-11-15T14:03:05;16.45;;;11.35;;
71562;SDS011;59391;52.504;13.438;2022-11-15T14:05:41;20.20;;;12.80;;
71562;SDS011;59391;52.504;13.438;2022-11-15T14:08:21;20.35;;;12.07;;
71562;SDS011;59391;52.504;13.438;2022-11-15T14:11:04;19.87;;;12.13;;
71562;SDS011;59391;52.504;13.438;2022-11-15T14:13:41;23.83;;;13.07;;
71562;SDS011;59391;52.504;13.438;2022-11-15T14:16:32;25.50;;;14.02;;
71562;SDS011;59391;52.504;13.438;2022-11-15T14:19:09;19.08;;;12.65;;
71562;SDS011;59391;52.504;13.438;2022-11-15T14:25:04;20.13;;;13.50;;
71562;SDS011;59391;52.504;13.438;2022-11-15T14:30:56;20.08;;;12.50;;
71562;SDS011;59391;52.504;13.438;2022-11-15T14:33:25;21.38;;;11.65;;
71562;SDS011;59391;52.504;13.438;2022-11-15T14:35:57;22.65;;;12.00;;
71562;SDS011;59391;52.504;13.438;2022-11-15T14:38:28;21.10;;;12.20;;
71562;SDS011;59391;52.504;13.438;2022-11-15T14:40:54;19.58;;;11.77;;
71562;SDS011;59391;52.504;13.438;2022-11-15T14:43:20;19.10;;;12.30;;
71562;SDS011;59391;52.504;13.438;2022-11-15T14:45:47;17.13;;;11.93;;
71562;SDS011;59391;52.504;13.438;2022-11-15T14:48:12;21.42;;;12.63;;
71562;SDS011;59391;52.504;13.438;2022-11-15T14:50:38;21.42;;;13.02;;
71562;SDS011;59391;52.504;13.438;2022-11-15T14:53:05;19.88;;;12.82;;
71562;SDS011;59391;52.504;13.438;2022-11-15T14:55:31;21.65;;;12.38;;
71562;SDS011;59391;52.504;13.438;2022-11-15T14:58:03;23.27;;;13.23;;
71562;SDS011;59391;52.504;13.438;2022-11-15T15:00:33;22.67;;;13.68;;
71562;SDS011;59391;52.504;13.438;2022-11-15T15:03:00;23.73;;;14.15;;
71562;SDS011;59391;52.504;13.438;2022-11-15T15:05:37;22.13;;;13.85;;
71562;SDS011;59391;52.504;13.438;2022-11-15T15:08:08;24.13;;;13.32;;
71562;SDS011;59391;52.504;13.438;2022-11-15T15:10:35;23.15;;;13.63;;
71562;SDS011;59391;52.504;13.438;2022-11-15T15:13:04;25.17;;;15.02;;
71562;SDS011;59391;52.504;13.438;2022-11-15T15:15:32;24.65;;;14.75;;
71562;SDS011;59391;52.504;13.438;2022-11-15T15:18:00;25.40;;;15.15;;
71562;SDS011;59391;52.504;13.438;2022-11-15T15:20:27;24.95;;;14.43;;
71562;SDS011;59391;52.504;13.438;2022-11-15T15:22:53;21.70;;;14.52;;
71562;SDS011;59391;52.504;13.438;2022-11-15T15:25:20;24.37;;;14.20;;
71562;SDS011;59391;52.504;13.438;2022-11-15T15:27:51;22.98;;;14.32;;
71562;SDS011;59391;52.504;13.438;2022-11-15T15:30:18;24.02;;;14.38;;
71562;SDS011;59391;52.504;13.438;2022-11-15T15:32:45;24.70;;;14.82;;
71562;SDS011;59391;52.504;13.438;2022-11-15T15:35:14;27.60;;;15.47;;
71562;SDS011;59391;52.504;13.438;2022-11-15T15:37:41;30.90;;;16.83;;
71562;SDS011;59391;52.504;13.438;2022-11-15T15:40:19;30.40;;;15.63;;
71562;SDS011;59391;52.504;13.438;2022-11-15T15:42:47;40.28;;;18.45;;
71562;SDS011;59391;52.504;13.438;2022-11-15T15:45:14;34.38;;;18.33;;
71562;SDS011;59391;52.504;13.438;2022-11-15T15:47:41;50.63;;;25.43;;
71562;SDS011;59391;52.504;13.438;2022-11-15T15:50:26;27.75;;;16.25;;
71562;SDS011;59391;52.504;13.438;2022-11-15T15:52:59;25.15;;;15.18;;
71562;SDS011;59391;52.504;13.438;2022-11-15T15:55:27;24.83;;;14.88;;
71562;SDS011;59391;52.504;13.438;2022-11-15T15:57:53;39.95;;;22.38;;
71562;SDS011;59391;52.504;13.438;2022-11-15T16:00:20;47.03;;;24.20;;
71562;SDS011;59391;52.504;13.438;2022-11-15T16:02:49;27.27;;;14.90;;
71562;SDS011;59391;52.504;13.438;2022-11-15T16:05:16;25.00;;;14.60;;
71562;SDS011;59391;52.504;13.438;2022-11-15T16:07:42;30.98;;;17.70;;
71562;SDS011;59391;52.504;13.438;2022-11-15T16:10:30;31.48;;;17.20;;
71562;SDS011;59391;52.504;13.438;2022-11-15T16:13:01;28.27;;;15.17;;
71562;SDS011;59391;52.504;13.438;2022-11-15T16:15:29;27.48;;;15.38;;
71562;SDS011;59391;52.504;13.438;2022-11-15T16:17:57;27.70;;;16.15;;
71562;SDS011;59391;52.504;13.438;2022-11-15T16:23:08;29.75;;;15.07;;